Terminal Aerodrome Forecast
Issued by NWS

Home | Current Version | Previous Version | Text Only | Print | Product List | Glossary On
Versions: 1 2 3 4 5 6 7 8 9 10 11 12 13 14
925
FTUS45 KABQ 231139
TAFLVS
TAF
KLVS 231139Z 2312/2412 VRB06KT P6SM SCT120
     FM231700 17011KT P6SM SCT090 BKN150
     FM231900 25011KT P6SM VCSH BKN090
      TEMPO 2319/2322 VRB20G30KT 6SM -TSRA BKN090CB
     FM240500 03006KT P6SM VCSH BKN090=

USA.gov is the U.S. government's official web portal to all federal, state and local government web resources and services.